Time;durP1;ratioP1;P1;durP2;ratioP2;P2;SDS_P1;SDS_P2;PMS_P1;PMS_P2;Temp;Humidity;BMP_temperature;BMP_pressure;BME280_temperature;BME280_humidity;BME280_pressure;Samples;Min_cycle;Max_cycle;Signal;HPM_P1;HPM_P2
2024/04/02 00:00:32;;;;;;;;;;;;;;;-144.99;100.00;52490.91;5066720;28;19995;-63
2024/04/02 00:03:00;;;;;;;;;;;;;;;-144.99;100.00;52525.56;5064385;28;19939;-63
2024/04/02 00:05:25;;;;;;;;;;;;;;;-144.99;100.00;52488.84;5068217;28;20373;-63
2024/04/02 00:07:52;;;;;;;;;;;;;;;-144.99;100.00;52513.31;5058886;28;20040;-64
2024/04/02 00:10:17;;;;;;;;;;;;;;;-144.99;100.00;52554.09;5062410;28;20449;-63
2024/04/02 00:12:44;;;;;;;;;;;;;;;-144.99;100.00;52550.00;5057635;28;19985;-66
2024/04/02 00:15:10;;;;;;;;;;;;;;;-144.99;100.00;52517.41;5059230;28;19932;-67
2024/04/02 00:17:37;;;;;;;;;;;;;;;-144.99;100.00;52523.50;5059347;28;20021;-65
2024/04/02 00:20:04;;;;;;;;;;;;;;;-144.99;100.00;52558.16;5064481;28;19936;-66
2024/04/02 00:22:30;;;;;;;;;;;;;;;-144.99;100.00;52558.16;5061054;28;19982;-66
2024/04/02 00:24:56;;;;;;;;;;;;;;;-144.99;100.00;52488.84;5061871;28;19960;-67
2024/04/02 00:27:22;;;;;;;;;;;;;;;-144.99;100.00;52505.16;5050787;28;20345;-66
2024/04/02 00:29:48;;;;;;;;;;;;;;;-144.99;100.00;52554.09;5067040;28;20384;-66
2024/04/02 00:32:14;;;;;;;;;;;;;;;-144.99;100.00;52533.69;5048460;28;20028;-71
2024/04/02 00:34:42;;;;;;;;;;;;;;;-144.99;100.00;52511.28;5055404;28;20438;-68
2024/04/02 00:37:10;;;;;;;;;;;;;;;-144.99;100.00;52541.84;5065282;28;20232;-69
2024/04/02 00:39:39;;;;;;;;;;;;;;;-144.99;100.00;52545.94;5058364;28;19960;-69
2024/04/02 00:42:06;;;;;;;;;;;;;;;-144.99;100.00;52556.13;5059424;28;19931;-69
2024/04/02 00:44:33;;;;;;;;;;;;;;;-144.99;100.00;52543.91;5066953;28;19959;-69
2024/04/02 00:46:59;;;;;;;;;;;;;;;-144.99;100.00;52519.44;5061194;28;20160;-69
2024/04/02 00:49:25;;;;;;;;;;;;;;;-144.99;100.00;52564.28;5059410;28;19952;-69
2024/04/02 00:51:52;;;;;;;;;;;;;;;-144.99;100.00;52533.69;5058613;28;20033;-69
2024/04/02 00:54:19;;;;;;;;;;;;;;;-144.99;100.00;52529.63;5058226;28;19984;-70
2024/04/02 00:56:45;;;;;;;;;;;;;;;-144.99;100.00;52562.25;5061396;28;19943;-68
2024/04/02 00:59:11;;;;;;;;;;;;;;;-144.99;100.00;52545.94;5056598;28;19936;-68
2024/04/02 01:01:37;;;;;;;;;;;;;;;-144.99;100.00;52578.53;5056495;28;19974;-67
2024/04/02 01:04:03;;;;;;;;;;;;;;;-144.99;100.00;52513.31;5065656;28;19928;-71
2024/04/02 01:06:30;;;;;;;;;;;;;;;-144.99;100.00;52560.19;5056451;28;19968;-69
2024/04/02 01:08:55;;;;;;;;;;;;;;;-144.99;100.00;52513.31;5055963;28;19932;-71
2024/04/02 01:11:23;;;;;;;;;;;;;;;-144.99;100.00;52576.50;5062799;28;19932;-66
2024/04/02 01:13:51;;;;;;;;;;;;;;;-144.99;100.00;52509.25;5057992;28;20017;-68
2024/04/02 01:16:17;;;;;;;;;;;;;;;-144.99;100.00;52501.09;5058480;28;19940;-66
2024/04/02 01:18:45;;;;;;;;;;;;;;;-144.99;100.00;52507.19;5061900;28;19951;-65
2024/04/02 01:21:11;;;;;;;;;;;;;;;-144.99;100.00;52554.09;5058652;28;19928;-65
2024/04/02 01:23:37;;;;;;;;;;;;;;;-144.99;100.00;52529.63;5062322;28;19967;-67
2024/04/02 01:26:05;;;;;;;;;;;;;;;-144.99;100.00;52505.16;5063836;28;20489;-68
2024/04/02 01:28:30;;;;;;;;;;;;;;;-144.99;100.00;52537.78;5063620;28;19967;-68
2024/04/02 01:30:57;;;;;;;;;;;;;;;-144.99;100.00;52533.69;5060391;28;20033;-67
2024/04/02 01:33:22;;;;;;;;;;;;;;;-144.99;100.00;52521.47;5058011;28;20059;-63
2024/04/02 01:35:49;;;;;;;;;;;;;;;-144.99;100.00;52525.56;5063034;28;20028;-64
2024/04/02 01:38:15;;;;;;;;;;;;;;;-144.99;100.00;52556.13;5066328;28;19968;-65
2024/04/02 01:40:41;;;;;;;;;;;;;;;-144.99;100.00;52529.63;5062104;28;20029;-71
2024/04/02 01:43:08;;;;;;;;;;;;;;;-144.99;100.00;52537.78;5063301;28;19964;-70
2024/04/02 01:45:35;;;;;;;;;;;;;;;-144.99;100.00;52525.56;5053357;28;19935;-70
2024/04/02 01:48:02;;;;;;;;;;;;;;;-144.99;100.00;52566.31;5057559;28;19996;-70
2024/04/02 01:50:29;;;;;;;;;;;;;;;-144.99;100.00;52525.56;5063914;28;19932;-69
2024/04/02 01:52:54;;;;;;;;;;;;;;;-144.99;100.00;52533.69;5061561;28;20043;-69
2024/04/02 01:55:21;;;;;;;;;;;;;;;-144.99;100.00;52509.25;5056709;28;20433;-71
2024/04/02 01:57:46;;;;;;;;;;;;;;;-144.99;100.00;52554.09;5053225;28;19928;-69
2024/04/02 02:00:15;;;;;;;;;;;;;;;-144.99;100.00;52527.59;5057937;28;20329;-70
2024/04/02 02:02:40;;;;;;;;;;;;;;;-144.99;100.00;52566.31;5057981;28;19936;-68
2024/04/02 02:05:07;;;;;;;;;;;;;;;-144.99;100.00;52547.97;5066539;28;19928;-68
2024/04/02 02:07:33;;;;;;;;;;;;;;;-144.99;100.00;52517.41;5051133;28;19933;-67
2024/04/02 02:09:59;;;;;;;;;;;;;;;-144.99;100.00;52517.41;5055507;28;19934;-68
2024/04/02 02:12:25;;;;;;;;;;;;;;;-144.99;100.00;52566.31;5065577;28;20005;-68
2024/04/02 02:14:51;;;;;;;;;;;;;;;-144.99;100.00;52584.66;5058274;28;19956;-68
2024/04/02 02:17:18;;;;;;;;;;;;;;;-144.99;100.00;52545.94;4704303;28;9999814;-69
2024/04/02 02:19:45;;;;;;;;;;;;;;;-144.99;100.00;52590.78;5051352;28;19936;-71
2024/04/02 02:22:10;;;;;;;;;;;;;;;-144.99;100.00;52554.09;5054479;28;19928;-68
2024/04/02 02:24:37;;;;;;;;;;;;;;;-144.99;100.00;52537.78;5046531;28;20010;-65
2024/04/02 02:27:03;;;;;;;;;;;;;;;-144.99;100.00;52566.31;5061712;28;20016;-64
2024/04/02 02:29:29;;;;;;;;;;;;;;;-144.99;100.00;52537.78;5049499;28;20027;-65
2024/04/02 02:31:55;;;;;;;;;;;;;;;-144.99;100.00;52541.84;5065669;28;19952;-65
2024/04/02 02:34:23;;;;;;;;;;;;;;;-144.99;100.00;52499.06;5068742;28;19990;-66
2024/04/02 02:36:50;;;;;;;;;;;;;;;-144.99;100.00;52511.28;5064548;28;20008;-64
2024/04/02 02:39:16;;;;;;;;;;;;;;;-144.99;100.00;52574.47;5057251;28;19970;-63
2024/04/02 02:41:45;;;;;;;;;;;;;;;-144.99;100.00;52507.19;5067772;28;20012;-63
2024/04/02 02:44:11;;;;;;;;;;;;;;;-144.99;100.00;52545.94;5068130;28;19924;-65
2024/04/02 02:46:37;;;;;;;;;;;;;;;-144.99;100.00;52550.00;5059489;28;19939;-67
2024/04/02 02:49:03;;;;;;;;;;;;;;;-144.99;100.00;52554.09;5062920;28;19924;-69
2024/04/02 02:51:30;;;;;;;;;;;;;;;-144.99;100.00;52562.25;5064336;28;20015;-67
2024/04/02 02:53:57;;;;;;;;;;;;;;;-144.99;100.00;52566.31;5067832;28;19948;-68
2024/04/02 02:56:22;;;;;;;;;;;;;;;-144.99;100.00;52523.50;5063910;28;19976;-70
2024/04/02 02:58:50;;;;;;;;;;;;;;;-144.99;100.00;52541.84;5050849;28;19964;-69
2024/04/02 03:01:16;;;;;;;;;;;;;;;-144.99;100.00;52582.63;5067747;28;20468;-68
2024/04/02 03:03:43;;;;;;;;;;;;;;;-144.99;100.00;52533.69;5066850;28;19976;-68
2024/04/02 03:06:08;;;;;;;;;;;;;;;-144.99;100.00;52525.56;5066858;28;19932;-64
2024/04/02 03:08:36;;;;;;;;;;;;;;;-144.99;100.00;52533.69;5071215;28;19932;-64
2024/04/02 03:11:03;;;;;;;;;;;;;;;-144.99;100.00;52545.94;5058795;28;19971;-65
2024/04/02 03:13:30;;;;;;;;;;;;;;;-144.99;100.00;52537.78;5062842;28;20027;-65
2024/04/02 03:15:55;;;;;;;;;;;;;;;-144.99;100.00;52574.47;5061700;28;20141;-65
2024/04/02 03:18:22;;;;;;;;;;;;;;;-144.99;100.00;52572.44;5071285;28;20047;-65
2024/04/02 03:20:47;;;;;;;;;;;;;;;-144.99;100.00;52499.06;5066222;28;19973;-64
2024/04/02 03:23:16;;;;;;;;;;;;;;;-144.99;100.00;52550.00;5067546;28;19967;-70
2024/04/02 03:25:50;;;;;;;;;;;;;;;-144.99;100.00;52545.94;5061976;28;20015;-70
2024/04/02 03:28:18;;;;;;;;;;;;;;;-144.99;100.00;52529.63;5055742;28;19986;-70
2024/04/02 03:30:43;;;;;;;;;;;;;;;-144.99;100.00;52550.00;5055566;28;19925;-70
2024/04/02 03:33:10;;;;;;;;;;;;;;;-144.99;100.00;52521.47;5054181;28;20279;-70
2024/04/02 03:35:35;;;;;;;;;;;;;;;-144.99;100.00;52521.47;5063588;28;20347;-70
2024/04/02 03:38:02;;;;;;;;;;;;;;;-144.99;100.00;52560.19;5069624;28;19999;-69
2024/04/02 03:40:29;;;;;;;;;;;;;;;-144.99;100.00;52545.94;5059504;28;20402;-65
2024/04/02 03:42:57;;;;;;;;;;;;;;;-144.99;100.00;52562.25;5063243;28;19934;-66
2024/04/02 03:45:24;;;;;;;;;;;;;;;-144.99;100.00;52550.00;5063140;28;20023;-64
2024/04/02 03:47:50;;;;;;;;;;;;;;;-144.99;100.00;52517.41;5068534;28;19955;-65
2024/04/02 03:50:16;;;;;;;;;;;;;;;-144.99;100.00;52554.09;5067763;28;19925;-65
2024/04/02 03:52:42;;;;;;;;;;;;;;;-144.99;100.00;52558.16;5066654;28;20016;-64
2024/04/02 03:55:08;;;;;;;;;;;;;;;-144.99;100.00;52550.00;5070624;28;20003;-65
2024/04/02 03:57:33;;;;;;;;;;;;;;;-144.99;100.00;52570.38;5054873;28;19964;-67
2024/04/02 04:00:02;;;;;;;;;;;;;;;-144.99;100.00;52558.16;5063348;28;20410;-64
2024/04/02 04:02:27;;;;;;;;;;;;;;;-144.99;100.00;52537.78;5058036;28;20422;-64
2024/04/02 04:04:54;;;;;;;;;;;;;;;-144.99;100.00;52556.13;5063158;28;19928;-71
2024/04/02 04:07:19;;;;;;;;;;;;;;;-144.99;100.00;52566.31;5059272;28;20358;-64
2024/04/02 04:09:46;;;;;;;;;;;;;;;-144.99;100.00;52537.78;5070769;28;20015;-63
2024/04/02 04:12:12;;;;;;;;;;;;;;;-144.99;100.00;52525.56;5065532;22;19986;-67
2024/04/02 04:14:38;;;;;;;;;;;;;;;-144.99;100.00;52584.66;5030130;28;20343;-68
2024/04/02 04:17:05;;;;;;;;;;;;;;;-144.99;100.00;52501.09;5029089;28;20015;-69
2024/04/02 04:19:32;;;;;;;;;;;;;;;-144.99;100.00;52547.97;5029176;28;20331;-67
2024/04/02 04:21:57;;;;;;;;;;;;;;;-144.99;100.00;52541.84;5014457;28;20293;-68
2024/04/02 04:24:24;;;;;;;;;;;;;;;-144.99;100.00;52521.47;5010089;28;20032;-66
2024/04/02 04:26:49;;;;;;;;;;;;;;;-144.99;100.00;52564.28;5007204;28;20247;-67
2024/04/02 04:29:16;;;;;;;;;;;;;;;-144.99;100.00;52531.66;5010025;28;19929;-67
2024/04/02 04:31:43;;;;;;;;;;;;;;;-144.99;100.00;52503.13;5009215;28;19930;-67
2024/04/02 04:34:11;;;;;;;;;;;;;;;-144.99;100.00;52590.78;5010380;28;19930;-67
2024/04/02 04:36:36;;;;;;;;;;;;;;;-144.99;100.00;52541.84;5009684;28;20005;-68
2024/04/02 04:39:05;;;;;;;;;;;;;;;-144.99;100.00;52533.69;5006936;28;20009;-68
2024/04/02 04:41:30;;;;;;;;;;;;;;;-144.99;100.00;52529.63;5010883;28;19926;-62
2024/04/02 04:43:57;;;;;;;;;;;;;;;-144.99;100.00;52529.63;5013952;28;19997;-61
2024/04/02 04:46:22;;;;;;;;;;;;;;;-144.99;100.00;52562.25;5011673;28;20049;-61
2024/04/02 04:48:48;;;;;;;;;;;;;;;-144.99;100.00;52517.41;5012267;28;19975;-65
2024/04/02 04:51:16;;;;;;;;;;;;;;;-144.99;100.00;52533.69;5011849;28;19930;-64
2024/04/02 04:53:42;;;;;;;;;;;;;;;-144.99;100.00;52541.84;5012364;28;19987;-65
2024/04/02 04:56:09;;;;;;;;;;;;;;;-144.99;100.00;52588.75;5012607;28;20623;-65
2024/04/02 04:58:35;;;;;;;;;;;;;;;-144.99;100.00;52509.25;5011698;28;19933;-68
2024/04/02 05:01:02;;;;;;;;;;;;;;;-144.99;100.00;52541.84;5002473;28;19952;-66
2024/04/02 05:03:27;;;;;;;;;;;;;;;-144.99;100.00;52560.19;5009036;28;19952;-66
2024/04/02 05:06:03;;;;;;;;;;;;;;;-144.99;100.00;52580.59;5009094;28;20445;-66
2024/04/02 05:08:30;;;;;;;;;;;;;;;-144.99;100.00;52566.31;5007356;28;20016;-65
2024/04/02 05:10:57;;;;;;;;;;;;;;;-144.99;100.00;52537.78;5006723;28;20020;-66
2024/04/02 05:13:24;;;;;;;;;;;;;;;-144.99;100.00;52519.44;5008473;28;19926;-65
2024/04/02 05:15:50;;;;;;;;;;;;;;;-144.99;100.00;52558.16;5006755;28;20354;-66
2024/04/02 05:18:16;;;;;;;;;;;;;;;-144.99;100.00;52541.84;4999631;28;20056;-64
2024/04/02 05:20:42;;;;;;;;;;;;;;;-144.99;100.00;52529.63;5008832;28;19933;-64
2024/04/02 05:23:08;;;;;;;;;;;;;;;-144.99;100.00;52505.16;5002911;28;19933;-64
2024/04/02 05:25:35;;;;;;;;;;;;;;;-144.99;100.00;52554.09;5008423;28;19933;-64
2024/04/02 05:28:01;;;;;;;;;;;;;;;-144.99;100.00;52513.31;5008874;28;19929;-65
2024/04/02 05:30:28;;;;;;;;;;;;;;;-144.99;100.00;52517.41;5008585;28;19926;-62
2024/04/02 05:32:54;;;;;;;;;;;;;;;-144.99;100.00;52537.78;5008466;28;20012;-62
2024/04/02 05:35:21;;;;;;;;;;;;;;;-144.99;100.00;52505.16;5007714;28;20015;-63
2024/04/02 05:37:48;;;;;;;;;;;;;;;-144.99;100.00;52574.47;5008113;28;20417;-63
2024/04/02 05:40:14;;;;;;;;;;;;;;;-144.99;100.00;52570.38;5003635;28;20036;-63
2024/04/02 05:42:43;;;;;;;;;;;;;;;-144.99;100.00;52545.94;5001444;28;19973;-61
2024/04/02 05:45:09;;;;;;;;;;;;;;;-144.99;100.00;52600.97;5008636;28;20387;-61
2024/04/02 05:47:35;;;;;;;;;;;;;;;-144.99;100.00;52543.91;5007988;28;20363;-62
2024/04/02 05:50:02;;;;;;;;;;;;;;;-144.99;100.00;52545.94;5008282;28;19971;-62
2024/04/02 05:52:27;;;;;;;;;;;;;;;-144.99;100.00;52560.19;5008811;28;19936;-62
2024/04/02 05:54:54;;;;;;;;;;;;;;;-144.99;100.00;52529.63;5009180;28;20016;-61
2024/04/02 05:57:19;;;;;;;;;;;;;;;-144.99;100.00;52574.47;5008763;28;19957;-62
2024/04/02 05:59:47;;;;;;;;;;;;;;;-144.99;100.00;52525.56;5004904;28;19930;-67
2024/04/02 06:02:13;;;;;;;;;;;;;;;-144.99;100.00;52566.31;5000976;28;19930;-67
2024/04/02 06:04:39;;;;;;;;;;;;;;;-144.99;100.00;52547.97;5008107;28;20234;-67
2024/04/02 06:07:05;;;;;;;;;;;;;;;-144.99;100.00;52541.84;5009245;28;19953;-67
2024/04/02 06:09:34;;;;;;;;;;;;;;;-144.99;100.00;52554.09;5009229;28;19972;-68
2024/04/02 06:12:00;;;;;;;;;;;;;;;-144.99;100.00;52533.69;5002899;28;19936;-67
2024/04/02 06:14:27;;;;;;;;;;;;;;;-144.99;100.00;52545.94;5003495;28;20001;-68
2024/04/02 06:16:53;;;;;;;;;;;;;;;-144.99;100.00;52517.41;5003872;28;19988;-74
2024/04/02 06:19:20;;;;;;;;;;;;;;;-144.99;100.00;52525.56;5006896;28;19929;-73
2024/04/02 06:21:45;;;;;;;;;;;;;;;-144.99;100.00;52541.84;5008012;28;19937;-68
2024/04/02 06:24:12;;;;;;;;;;;;;;;-144.99;100.00;52533.69;5004810;28;19984;-68
2024/04/02 06:26:37;;;;;;;;;;;;;;;-144.99;100.00;52509.25;5008624;28;19934;-69
2024/04/02 06:29:04;;;;;;;;;;;;;;;-144.99;100.00;52523.50;5008875;28;19995;-68
2024/04/02 06:31:29;;;;;;;;;;;;;;;-144.99;100.00;52586.69;5008476;28;19961;-67
2024/04/02 06:33:57;;;;;;;;;;;;;;;-144.99;100.00;52533.69;5007590;28;19968;-68
2024/04/02 06:36:23;;;;;;;;;;;;;;;-144.99;100.00;52547.97;5012395;28;20554;-68
2024/04/02 06:38:50;;;;;;;;;;;;;;;-144.99;100.00;52550.00;5010873;28;19957;-69
2024/04/02 06:41:15;;;;;;;;;;;;;;;-144.99;100.00;52547.97;5006100;28;20379;-70
2024/04/02 06:43:42;;;;;;;;;;;;;;;-144.99;100.00;52562.25;5008986;28;19964;-69
2024/04/02 06:46:08;;;;;;;;;;;;;;;-144.99;100.00;52562.25;5011638;28;19995;-69
2024/04/02 06:48:34;;;;;;;;;;;;;;;-144.99;100.00;52517.41;5010105;28;20291;-69
2024/04/02 06:51:02;;;;;;;;;;;;;;;-144.99;100.00;52562.25;5008227;28;19961;-66
2024/04/02 06:53:29;;;;;;;;;;;;;;;-144.99;100.00;52537.78;5013119;28;19929;-66
2024/04/02 06:55:54;;;;;;;;;;;;;;;-144.99;100.00;52580.59;5012030;28;19984;-67
2024/04/02 06:58:21;;;;;;;;;;;;;;;-144.99;100.00;52507.19;5012015;28;20346;-68
2024/04/02 07:00:47;;;;;;;;;;;;;;;-144.99;100.00;52566.31;5007505;28;19980;-68
2024/04/02 07:03:15;;;;;;;;;;;;;;;-144.99;100.00;52541.84;5011892;28;19969;-68
2024/04/02 07:05:41;;;;;;;;;;;;;;;-144.99;100.00;52558.16;5006531;28;19929;-68
2024/04/02 07:08:09;;;;;;;;;;;;;;;-144.99;100.00;52566.31;5011944;28;19988;-68
2024/04/02 07:10:34;;;;;;;;;;;;;;;-144.99;100.00;52541.84;5010654;28;19969;-68
2024/04/02 07:13:01;;;;;;;;;;;;;;;-144.99;100.00;52492.94;5010821;28;19964;-68
2024/04/02 07:15:26;;;;;;;;;;;;;;;-144.99;100.00;52527.59;5011932;28;19926;-68
2024/04/02 07:17:53;;;;;;;;;;;;;;;-144.99;100.00;52517.41;5011934;28;20470;-68
2024/04/02 07:20:18;;;;;;;;;;;;;;;-144.99;100.00;52541.84;5010196;28;19991;-67
2024/04/02 07:22:45;;;;;;;;;;;;;;;-144.99;100.00;52509.25;5005230;28;19961;-68
2024/04/02 07:25:12;;;;;;;;;;;;;;;-144.99;100.00;52523.50;5010568;28;19925;-67
2024/04/02 07:27:39;;;;;;;;;;;;;;;-144.99;100.00;52545.94;5006227;28;19930;-67
2024/04/02 07:30:04;;;;;;;;;;;;;;;-144.99;100.00;52547.97;5008352;28;19988;-67
2024/04/02 07:32:31;;;;;;;;;;;;;;;-144.99;100.00;52543.91;5011701;28;20020;-67
2024/04/02 07:34:57;;;;;;;;;;;;;;;-144.99;100.00;52560.19;5011978;28;19925;-67
2024/04/02 07:37:26;;;;;;;;;;;;;;;-144.99;100.00;52550.00;5010991;28;19972;-69
2024/04/02 07:39:51;;;;;;;;;;;;;;;-144.99;100.00;52552.03;5010025;28;19925;-67
2024/04/02 07:42:19;;;;;;;;;;;;;;;-144.99;100.00;52543.91;5011623;28;20672;-70
2024/04/02 07:44:45;;;;;;;;;;;;;;;-144.99;100.00;52521.47;5011470;28;19987;-68
2024/04/02 07:47:11;;;;;;;;;;;;;;;-144.99;100.00;52554.09;5004718;28;19972;-67
2024/04/02 07:49:37;;;;;;;;;;;;;;;-144.99;100.00;52497.00;5008598;28;19979;-68
2024/04/02 07:52:03;;;;;;;;;;;;;;;-144.99;100.00;52529.63;5008979;28;19957;-67
2024/04/02 07:54:29;;;;;;;;;;;;;;;-144.99;100.00;52501.09;5011366;28;19929;-67
2024/04/02 07:56:55;;;;;;;;;;;;;;;-144.99;100.00;52539.81;5004487;28;20011;-67
2024/04/02 07:59:23;;;;;;;;;;;;;;;-144.99;100.00;52558.16;5009362;28;20356;-68
2024/04/02 08:01:49;;;;;;;;;;;;;;;-144.99;100.00;52519.44;5003700;28;19979;-67
2024/04/02 08:04:15;;;;;;;;;;;;;;;-144.99;100.00;52550.00;5010796;28;19972;-69
2024/04/02 08:06:43;;;;;;;;;;;;;;;-144.99;100.00;52550.00;5010660;28;20054;-67
2024/04/02 08:09:08;;;;;;;;;;;;;;;-144.99;100.00;52505.16;5006723;28;20410;-68
2024/04/02 08:11:35;;;;;;;;;;;;;;;-144.99;100.00;52521.47;5009716;28;20046;-66
2024/04/02 08:14:00;;;;;;;;;;;;;;;-144.99;100.00;52529.63;5010849;28;19933;-66
2024/04/02 08:16:28;;;;;;;;;;;;;;;-144.99;100.00;52525.56;5009413;28;19948;-65
2024/04/02 08:18:54;;;;;;;;;;;;;;;-144.99;100.00;52572.44;5010433;28;19979;-67
2024/04/02 08:21:20;;;;;;;;;;;;;;;-144.99;100.00;52525.56;5010354;28;20300;-66
2024/04/02 08:23:46;;;;;;;;;;;;;;;-144.99;100.00;52547.97;5010184;28;20667;-66
2024/04/02 08:26:12;;;;;;;;;;;;;;;-144.99;100.00;52472.56;5011175;28;20031;-68
2024/04/02 08:28:38;;;;;;;;;;;;;;;-144.99;100.00;52541.84;5010308;28;20044;-67
2024/04/02 08:31:04;;;;;;;;;;;;;;;-144.99;100.00;52570.38;5010976;28;20008;-66
2024/04/02 08:33:31;;;;;;;;;;;;;;;-144.99;100.00;52529.63;5007907;28;19930;-66
2024/04/02 08:35:58;;;;;;;;;;;;;;;-144.99;100.00;52503.13;5010518;28;19930;-66
2024/04/02 08:38:23;;;;;;;;;;;;;;;-144.99;100.00;52545.94;5010632;28;20005;-65
2024/04/02 08:40:51;;;;;;;;;;;;;;;-144.99;100.00;52525.56;5008238;28;20012;-66
2024/04/02 08:43:17;;;;;;;;;;;;;;;-144.99;100.00;52501.09;5006947;28;20072;-66
2024/04/02 08:45:43;;;;;;;;;;;;;;;-144.99;100.00;52527.59;5001187;28;20024;-66
2024/04/02 08:48:10;;;;;;;;;;;;;;;-144.99;100.00;52547.97;5003326;28;20016;-66
2024/04/02 08:50:37;;;;;;;;;;;;;;;-144.99;100.00;52533.69;5008654;28;19953;-67
2024/04/02 08:53:04;;;;;;;;;;;;;;;-144.99;100.00;52501.09;5010903;28;20229;-65
2024/04/02 08:55:29;;;;;;;;;;;;;;;-144.99;100.00;52513.31;5009651;28;19952;-66
2024/04/02 08:57:56;;;;;;;;;;;;;;;-144.99;100.00;52523.50;5009055;28;19972;-65
2024/04/02 09:00:22;;;;;;;;;;;;;;;-144.99;100.00;52533.69;5001908;28;20335;-65
2024/04/02 09:02:48;;;;;;;;;;;;;;;-144.99;100.00;52541.84;5010259;28;19929;-65
2024/04/02 09:05:14;;;;;;;;;;;;;;;-144.99;100.00;52525.56;5009377;28;20379;-66
2024/04/02 09:07:41;;;;;;;;;;;;;;;-144.99;100.00;52515.34;5007355;28;19999;-66
2024/04/02 09:10:07;;;;;;;;;;;;;;;-144.99;100.00;52541.84;5009811;28;20007;-66
2024/04/02 09:12:34;;;;;;;;;;;;;;;-144.99;100.00;52547.97;5007843;28;19953;-66
2024/04/02 09:14:59;;;;;;;;;;;;;;;-144.99;100.00;52517.41;5008490;28;20063;-66
2024/04/02 09:17:26;;;;;;;;;;;;;;;-144.99;100.00;52562.25;5008095;28;19929;-66
2024/04/02 09:19:51;;;;;;;;;;;;;;;-144.99;100.00;52554.09;5010064;28;19961;-66
2024/04/02 09:22:18;;;;;;;;;;;;;;;-144.99;100.00;52513.31;5009560;28;19988;-66
2024/04/02 09:24:45;;;;;;;;;;;;;;;-144.99;100.00;52505.16;5010219;28;19941;-67
2024/04/02 09:27:11;;;;;;;;;;;;;;;-144.99;100.00;52497.00;5009505;28;19929;-65
2024/04/02 09:29:37;;;;;;;;;;;;;;;-144.99;99.48;52480.72;5008964;28;19991;-67
2024/04/02 09:32:06;;;;;;;;;;;;;;;-144.99;98.55;52480.72;5008543;28;19929;-66
2024/04/02 09:34:33;;;;;;;;;;;;;;;-144.99;98.16;52509.25;5010432;28;19979;-66
2024/04/02 09:37:06;;;;;;;;;;;;;;;-144.99;97.76;52513.31;5010660;28;19972;-68
2024/04/02 09:39:32;;;;;;;;;;;;;;;-144.99;97.65;52478.66;5006318;28;20037;-66
2024/04/02 09:42:00;;;;;;;;;;;;;;;-144.99;97.20;52488.84;5009016;28;20446;-66
2024/04/02 09:44:26;;;;;;;;;;;;;;;-144.99;97.29;52513.31;5011060;28;20038;-68
2024/04/02 09:46:54;;;;;;;;;;;;;;;-144.99;97.55;52529.63;5009887;28;20639;-66
2024/04/02 09:49:20;;;;;;;;;;;;;;;-144.99;97.13;52444.03;5008348;28;19933;-65
2024/04/02 09:51:47;;;;;;;;;;;;;;;-144.99;96.82;52515.34;5007111;28;19925;-67
2024/04/02 09:54:13;;;;;;;;;;;;;;;-144.99;97.67;52533.69;5009527;28;19961;-67
2024/04/02 09:56:39;;;;;;;;;;;;;;;-144.99;98.04;52558.16;5007077;28;19925;-66
2024/04/02 09:59:06;;;;;;;;;;;;;;;-144.99;98.30;52476.63;5008836;28;20330;-66
2024/04/02 10:01:34;;;;;;;;;;;;;;;-144.99;98.42;52497.00;5002713;28;20016;-72
2024/04/02 10:04:05;;;;;;;;;;;;;;;-144.99;98.14;52537.78;5007005;28;20359;-66
2024/04/02 10:06:32;;;;;;;;;;;;;;;-144.99;98.25;52533.69;5007462;28;19925;-66
2024/04/02 10:08:58;;;;;;;;;;;;;;;-144.99;98.67;52499.06;5007955;28;20351;-67
2024/04/02 10:11:31;;;;;;;;;;;;;;;-144.99;98.89;52521.47;4970262;28;19938;-67
2024/04/02 10:14:02;;;;;;;;;;;;;;;-144.99;98.85;52505.16;4969341;28;19966;-65
2024/04/02 10:16:31;;;;;;;;;;;;;;;-144.99;98.73;52509.25;4965898;28;19930;-66
2024/04/02 10:18:59;;;;;;;;;;;;;;;-144.99;98.55;52537.78;4969150;28;19938;-65
2024/04/02 10:21:28;;;;;;;;;;;;;;;-144.99;97.64;52478.66;4968285;28;20469;-66
2024/04/02 10:23:57;;;;;;;;;;;;;;;-144.99;97.25;52488.84;4969247;28;20237;-65
2024/04/02 10:26:23;;;;;;;;;;;;;;;-144.99;97.21;52525.56;4967616;28;20630;-65
2024/04/02 10:28:53;;;;;;;;;;;;;;;-144.99;96.86;52468.47;4967793;28;19926;-65
2024/04/02 10:31:19;;;;;;;;;;;;;;;-144.99;95.74;52484.78;4953752;28;19930;-67
2024/04/02 10:33:50;;;;;;;;;;;;;;;-144.99;95.14;52488.84;4948267;29;19930;-66
2024/04/02 10:36:17;;;;;;;;;;;;;;;-144.99;93.18;52517.41;4948275;28;19930;-66
2024/04/02 10:38:43;;;;;;;;;;;;;;;-144.99;93.08;52472.56;4949529;28;19962;-66
2024/04/02 10:41:09;;;;;;;;;;;;;;;-144.99;93.41;52472.56;4946886;28;20653;-66
2024/04/02 10:43:35;;;;;;;;;;;;;;;-144.99;92.86;52501.09;4948579;28;20056;-66
2024/04/02 10:46:01;;;;;;;;;;;;;;;-144.99;91.72;52444.03;4948278;28;20366;-66
2024/04/02 10:48:27;;;;;;;;;;;;;;;-144.99;89.90;52509.25;4948854;28;19937;-66
2024/04/02 10:50:55;;;;;;;;;;;;;;;-144.99;89.46;52374.72;4948670;28;20357;-66
2024/04/02 10:53:20;;;;;;;;;;;;;;;-144.99;87.95;52468.47;4948111;28;19973;-66
2024/04/02 10:55:47;;;;;;;;;;;;;;;-144.99;89.71;52505.16;4950348;28;19962;-66
2024/04/02 10:58:14;;;;;;;;;;;;;;;-144.99;89.92;52490.91;4948670;28;20409;-66
2024/04/02 11:00:40;;;;;;;;;;;;;;;-144.99;89.82;52505.16;4948505;28;20104;-66
2024/04/02 11:03:06;;;;;;;;;;;;;;;-144.99;90.81;52497.00;4949552;28;20361;-66
2024/04/02 11:05:33;;;;;;;;;;;;;;;-144.99;90.46;52391.03;4949939;28;19930;-66
2024/04/02 11:08:00;;;;;;;;;;;;;;;-144.99;88.72;52466.44;4950037;28;19969;-67
2024/04/02 11:10:26;;;;;;;;;;;;;;;-144.99;88.19;52503.13;4949618;28;19930;-67
2024/04/02 11:12:52;;;;;;;;;;;;;;;-144.99;88.81;52509.25;4949483;28;19927;-65
2024/04/02 11:15:21;;;;;;;;;;;;;;;-144.99;89.37;52505.16;4949558;28;19934;-65
2024/04/02 11:17:46;;;;;;;;;;;;;;;-144.99;89.46;52501.09;4946121;29;19941;-66
2024/04/02 11:20:13;;;;;;;;;;;;;;;-144.99;88.66;52488.84;4949873;28;20308;-65
2024/04/02 11:25:26;;;;;;;;;;;;;;;-144.99;84.74;52397.13;4953218;29;19937;-68
2024/04/02 11:27:52;;;;;;;;;;;;;;;-144.99;82.09;52403.25;4952888;28;19930;-67
2024/04/02 11:30:20;;;;;;;;;;;;;;;-144.99;80.29;52480.72;4952641;28;19984;-67
2024/04/02 11:32:46;;;;;;;;;;;;;;;-144.99;78.71;52486.81;4946709;28;19938;-68
2024/04/02 11:35:14;;;;;;;;;;;;;;;-144.99;80.13;52492.94;4950446;28;19974;-67
2024/04/02 11:37:39;;;;;;;;;;;;;;;-144.99;81.78;52462.34;4952660;28;19965;-68
2024/04/02 11:40:06;;;;;;;;;;;;;;;-144.99;81.52;52338.03;4950220;28;19981;-67
2024/04/02 11:42:34;;;;;;;;;;;;;;;-144.99;80.01;52427.72;4947283;28;19934;-67
2024/04/02 11:45:03;;;;;;;;;;;;;;;-144.99;80.69;52433.81;4946787;29;19931;-67
2024/04/02 11:47:28;;;;;;;;;;;;;;;-144.99;80.36;52478.66;4950594;28;20052;-67
2024/04/02 11:49:55;;;;;;;;;;;;;;;-144.99;82.17;52488.84;4945619;28;20345;-67
2024/04/02 11:52:20;;;;;;;;;;;;;;;-144.99;83.25;52525.56;4945814;28;19966;-67
2024/04/02 11:54:47;;;;;;;;;;;;;;;-144.99;84.80;52492.94;4945514;28;20029;-69
2024/04/02 12:00:11;;;;;;;;;;;;;;;-144.99;87.05;52497.00;4946829;28;19940;-68
2024/04/02 12:02:38;;;;;;;;;;;;;;;-144.99;87.08;52509.25;4947624;28;19931;-68
2024/04/02 12:05:05;;;;;;;;;;;;;;;-144.99;88.20;52541.84;4945226;29;20428;-66
2024/04/02 12:07:32;;;;;;;;;;;;;;;-144.99;88.80;52501.09;4945950;29;19990;-66
2024/04/02 12:09:58;;;;;;;;;;;;;;;-144.99;88.69;52558.16;4945634;28;20535;-66
2024/04/02 12:12:25;;;;;;;;;;;;;;;-144.99;91.27;52513.31;4944429;28;20004;-67
2024/04/02 12:14:51;;;;;;;;;;;;;;;-144.99;91.56;52529.63;4944726;28;20018;-67
2024/04/02 12:17:21;;;;;;;;;;;;;;;-144.99;92.19;52545.94;4944806;28;20056;-68
2024/04/02 12:19:47;;;;;;;;;;;;;;;-144.99;94.74;52501.09;4945633;29;19926;-68